Time;durP1;ratioP1;P1;durP2;ratioP2;P2;SDS_P1;SDS_P2;PMS_P1;PMS_P2;Temp;Humidity;BMP_temperature;BMP_pressure;BME280_temperature;BME280_humidity;BME280_pressure;Samples;Min_cycle;Max_cycle;Signal;HPM_P1;HPM_P2
2021/07/04 00:00:29;;;;;;;15.30;3.33;;;16.80;99.90;;;;;;2078351;28;20014;-62
2021/07/04 00:01:30;;;;;;;9.27;3.15;;;16.80;99.90;;;;;;2087066;28;20062;-63
2021/07/04 00:02:31;;;;;;;11.32;3.05;;;16.80;99.90;;;;;;2088876;28;20566;-62
2021/07/04 00:03:31;;;;;;;9.07;3.15;;;16.80;99.90;;;;;;2089898;28;20025;-62
2021/07/04 00:04:32;;;;;;;11.73;3.42;;;16.80;99.90;;;;;;2079697;28;20034;-62
2021/07/04 00:05:51;;;;;;;10.85;3.63;;;16.80;99.90;;;;;;2085385;28;20708;-62
2021/07/04 00:06:52;;;;;;;8.05;3.25;;;16.80;99.90;;;;;;2098429;28;20020;-62
2021/07/04 00:07:53;;;;;;;12.75;3.63;;;16.80;99.90;;;;;;2094440;28;20031;-62
2021/07/04 00:08:53;;;;;;;8.77;2.90;;;16.80;99.90;;;;;;2084098;28;20021;-62
2021/07/04 00:09:54;;;;;;;12.77;3.33;;;16.70;99.90;;;;;;2084033;28;20514;-62
2021/07/04 00:11:03;;;;;;;10.95;3.15;;;16.70;99.90;;;;;;2086685;28;20029;-62
2021/07/04 00:12:05;;;;;;;16.42;3.30;;;16.70;99.90;;;;;;2086846;28;20429;-62
2021/07/04 00:13:06;;;;;;;16.80;3.72;;;16.70;99.90;;;;;;2090146;28;20052;-62
2021/07/04 00:14:06;;;;;;;7.82;2.88;;;16.70;99.90;;;;;;2081607;28;20021;-63
2021/07/04 00:15:10;;;;;;;11.15;3.60;;;16.70;99.90;;;;;;2087002;28;20025;-63
2021/07/04 00:16:11;;;;;;;10.52;2.88;;;16.70;99.90;;;;;;2082160;28;20032;-64
2021/07/04 00:17:12;;;;;;;7.47;2.55;;;16.70;99.90;;;;;;2074649;28;20032;-62
2021/07/04 00:18:16;;;;;;;8.52;2.80;;;16.70;99.90;;;;;;2074165;28;20024;-62
2021/07/04 00:19:17;;;;;;;11.90;2.88;;;16.70;99.90;;;;;;2080703;28;20025;-62
2021/07/04 00:20:19;;;;;;;9.05;3.67;;;16.70;99.90;;;;;;2077591;28;20134;-62
2021/07/04 00:21:20;;;;;;;10.18;3.05;;;16.70;99.90;;;;;;2077241;28;20040;-62
2021/07/04 00:22:21;;;;;;;10.98;3.00;;;16.70;99.90;;;;;;2084536;28;20017;-61
2021/07/04 00:23:22;;;;;;;9.18;3.13;;;16.60;99.90;;;;;;2083087;28;20022;-62
2021/07/04 00:24:23;;;;;;;10.80;3.40;;;16.60;99.90;;;;;;2085578;28;20028;-63
2021/07/04 00:25:25;;;;;;;9.73;3.17;;;16.60;99.90;;;;;;2079493;28;20037;-62
2021/07/04 00:26:26;;;;;;;12.63;3.13;;;16.70;99.90;;;;;;2087437;28;20052;-62
2021/07/04 00:27:27;;;;;;;14.82;3.15;;;16.70;99.90;;;;;;2081093;28;20025;-61
2021/07/04 00:28:27;;;;;;;12.77;3.72;;;16.60;99.90;;;;;;2080766;28;20045;-61
2021/07/04 00:29:28;;;;;;;12.60;3.40;;;16.60;99.90;;;;;;2081174;28;20623;-62
2021/07/04 00:30:29;;;;;;;12.07;3.00;;;16.60;99.90;;;;;;2081005;28;20125;-61
2021/07/04 00:31:30;;;;;;;12.98;3.25;;;16.60;99.90;;;;;;2076264;28;20037;-62
2021/07/04 00:32:30;;;;;;;15.52;3.25;;;16.60;99.90;;;;;;2075566;28;20402;-61
2021/07/04 00:33:31;;;;;;;8.23;3.08;;;16.60;99.90;;;;;;2078059;28;20031;-62
2021/07/04 00:34:32;;;;;;;18.58;3.83;;;16.60;99.90;;;;;;2081412;28;20017;-61
2021/07/04 00:35:34;;;;;;;10.07;3.63;;;16.50;99.90;;;;;;2076430;28;20030;-62
2021/07/04 00:36:35;;;;;;;;;;;16.60;99.90;;;;;;2073816;28;20032;-62
2021/07/04 00:37:36;;;;;;;14.65;4.03;;;16.60;99.90;;;;;;2076723;28;19920;-62
2021/07/04 00:38:36;;;;;;;10.32;3.70;;;16.60;99.90;;;;;;2080879;28;20482;-62
2021/07/04 00:39:37;;;;;;;16.05;3.75;;;16.50;99.90;;;;;;2084904;28;20047;-63
2021/07/04 00:40:40;;;;;;;14.27;3.22;;;16.50;99.90;;;;;;2090653;28;20025;-62
2021/07/04 00:41:40;;;;;;;14.45;3.33;;;16.50;99.90;;;;;;2096664;28;20070;-62
2021/07/04 00:42:42;;;;;;;13.48;3.20;;;16.50;99.90;;;;;;2095121;28;20445;-62
2021/07/04 00:43:44;;;;;;;11.95;3.97;;;16.50;99.90;;;;;;2092623;28;20028;-62
2021/07/04 00:44:44;;;;;;;11.32;3.67;;;16.50;99.90;;;;;;2073399;28;20125;-61
2021/07/04 00:45:45;;;;;;;13.35;3.33;;;16.50;99.90;;;;;;2078786;28;20021;-61
2021/07/04 00:46:46;;;;;;;14.15;3.20;;;16.50;99.90;;;;;;2086572;28;20377;-61
2021/07/04 00:47:48;;;;;;;16.25;3.58;;;16.50;99.90;;;;;;2087786;28;20024;-62
2021/07/04 00:48:48;;;;;;;13.57;3.33;;;16.50;99.90;;;;;;2090572;28;20029;-62
2021/07/04 00:49:49;;;;;;;10.65;3.53;;;16.50;99.90;;;;;;2097144;28;20522;-62
2021/07/04 00:50:51;;;;;;;14.90;2.83;;;16.50;99.90;;;;;;2078087;28;20071;-62
2021/07/04 00:51:51;;;;;;;7.03;2.65;;;16.50;99.90;;;;;;2080019;28;20026;-63
2021/07/04 00:52:53;;;;;;;10.88;3.72;;;16.50;99.90;;;;;;2087765;28;20071;-62
2021/07/04 00:53:55;;;;;;;7.65;2.67;;;16.50;99.90;;;;;;2090101;28;20021;-63
2021/07/04 00:54:55;;;;;;;9.82;3.50;;;16.50;99.90;;;;;;2080355;28;20032;-63
2021/07/04 00:55:56;;;;;;;9.68;3.67;;;16.50;99.90;;;;;;2077420;28;20018;-63
2021/07/04 00:56:57;;;;;;;10.23;3.35;;;16.50;99.90;;;;;;2080465;28;20058;-63
2021/07/04 00:57:58;;;;;;;13.40;4.22;;;16.50;99.90;;;;;;2081874;28;20108;-63
2021/07/04 00:58:59;;;;;;;12.98;3.42;;;16.50;99.90;;;;;;2073833;28;20042;-63
2021/07/04 01:00:01;;;;;;;10.52;3.72;;;16.50;99.90;;;;;;2085351;28;20025;-63
2021/07/04 01:01:02;;;;;;;9.75;3.92;;;16.50;99.90;;;;;;2085776;28;20404;-63
2021/07/04 01:02:03;;;;;;;10.30;3.10;;;16.50;99.90;;;;;;2076773;28;20494;-63
2021/07/04 01:03:04;;;;;;;16.30;4.57;;;16.50;99.90;;;;;;2086485;28;20036;-63
2021/07/04 01:04:05;;;;;;;13.60;3.35;;;16.50;99.90;;;;;;2075131;28;20517;-63
2021/07/04 01:05:12;;;;;;;7.80;2.97;;;16.50;99.90;;;;;;2077123;28;20029;-63
2021/07/04 01:06:13;;;;;;;16.55;3.70;;;16.50;99.90;;;;;;2085479;28;20020;-63
2021/07/04 01:07:14;;;;;;;10.38;3.28;;;16.50;99.90;;;;;;2081884;28;20108;-63
2021/07/04 01:08:15;;;;;;;11.45;2.85;;;16.50;99.90;;;;;;2080822;28;20029;-63
2021/07/04 01:09:16;;;;;;;8.90;3.80;;;16.50;99.90;;;;;;2081357;28;20049;-62
2021/07/04 01:10:20;;;;;;;11.23;3.00;;;16.50;99.90;;;;;;2081084;28;20017;-63
2021/07/04 01:11:21;;;;;;;12.30;3.20;;;16.50;99.90;;;;;;2072936;28;20021;-62
2021/07/04 01:12:21;;;;;;;8.95;3.08;;;16.40;99.90;;;;;;2079778;28;20034;-62
2021/07/04 01:13:22;;;;;;;13.65;3.17;;;16.50;99.90;;;;;;2080464;28;20489;-62
2021/07/04 01:14:23;;;;;;;9.82;3.50;;;16.50;99.90;;;;;;2079580;28;20068;-63
2021/07/04 01:15:26;;;;;;;13.88;3.75;;;16.50;99.90;;;;;;2075138;28;20025;-63
2021/07/04 01:16:27;;;;;;;10.23;3.10;;;16.50;99.90;;;;;;2077452;28;20565;-63
2021/07/04 01:17:28;;;;;;;12.45;3.22;;;16.50;99.90;;;;;;2072975;28;20096;-63
2021/07/04 01:18:29;;;;;;;9.75;3.40;;;16.50;99.90;;;;;;2076299;28;20512;-63
2021/07/04 01:19:30;;;;;;;11.93;3.72;;;16.50;99.90;;;;;;2081353;28;20039;-63
2021/07/04 01:20:31;;;;;;;12.85;3.58;;;16.40;99.90;;;;;;2081045;28;20037;-63
2021/07/04 01:21:33;;;;;;;12.48;3.38;;;16.40;99.90;;;;;;2073005;28;20367;-68
2021/07/04 01:22:35;;;;;;;9.32;3.60;;;16.40;99.90;;;;;;2081206;28;20715;-63
2021/07/04 01:23:36;;;;;;;11.73;3.85;;;16.50;99.90;;;;;;2077845;28;20596;-63
2021/07/04 01:24:37;;;;;;;11.57;3.70;;;16.40;99.90;;;;;;2081101;28;20029;-63
2021/07/04 01:25:47;;;;;;;9.25;3.20;;;16.40;99.90;;;;;;2082894;28;20063;-63
2021/07/04 01:26:48;;;;;;;10.55;3.38;;;16.50;99.90;;;;;;2074373;28;20052;-63
2021/07/04 01:27:49;;;;;;;12.60;3.28;;;16.50;99.90;;;;;;2081496;28;20022;-63
2021/07/04 01:28:50;;;;;;;10.95;3.20;;;16.50;99.90;;;;;;2082678;28;20021;-63
2021/07/04 01:29:51;;;;;;;12.35;3.85;;;16.50;99.90;;;;;;2072459;28;20104;-63
2021/07/04 01:30:55;;;;;;;11.55;3.90;;;16.50;99.90;;;;;;2072401;28;20026;-63
2021/07/04 01:31:56;;;;;;;8.50;3.45;;;16.50;99.90;;;;;;2075160;28;20386;-63
2021/07/04 01:32:57;;;;;;;9.55;3.30;;;16.50;99.90;;;;;;2076113;28;20033;-63
2021/07/04 01:33:58;;;;;;;12.85;3.53;;;16.50;99.90;;;;;;2078526;28;20021;-63
2021/07/04 01:34:59;;;;;;;14.80;3.53;;;16.50;99.90;;;;;;2080482;28;20417;-63
2021/07/04 01:36:00;;;;;;;10.60;3.50;;;16.50;99.90;;;;;;2088736;28;20036;-63
2021/07/04 01:37:00;;;;;;;14.88;3.60;;;16.40;99.90;;;;;;2086116;28;20034;-63
2021/07/04 01:38:01;;;;;;;14.20;4.05;;;16.50;99.90;;;;;;2080365;28;20030;-62
2021/07/04 01:39:03;;;;;;;16.88;3.58;;;16.50;99.90;;;;;;2077858;28;20025;-62
2021/07/04 01:40:04;;;;;;;8.55;2.90;;;16.50;99.90;;;;;;2072120;28;20052;-63
2021/07/04 01:41:05;;;;;;;11.07;3.63;;;16.40;99.90;;;;;;2072266;28;20026;-63
2021/07/04 01:42:06;;;;;;;8.43;3.13;;;16.50;99.90;;;;;;2074877;28;20021;-63
2021/07/04 01:43:07;;;;;;;11.38;3.67;;;16.50;99.90;;;;;;2081267;28;20013;-63
2021/07/04 01:44:07;;;;;;;16.45;3.55;;;16.50;99.90;;;;;;2080695;28;20017;-63
2021/07/04 01:45:10;;;;;;;9.80;3.42;;;16.50;99.90;;;;;;2081327;28;20530;-63
2021/07/04 01:46:11;;;;;;;10.98;3.40;;;16.40;99.90;;;;;;2071072;28;20029;-63
2021/07/04 01:47:11;;;;;;;12.10;3.25;;;16.50;99.90;;;;;;2079191;28;20056;-63
2021/07/04 01:48:13;;;;;;;8.23;3.30;;;16.50;99.90;;;;;;2080651;28;20056;-63
2021/07/04 01:49:14;;;;;;;7.55;2.97;;;16.50;99.90;;;;;;2080891;28;20157;-62
2021/07/04 01:50:22;;;;;;;14.02;3.53;;;16.40;99.90;;;;;;2080234;28;20584;-63
2021/07/04 01:51:22;;;;;;;13.63;3.70;;;16.50;99.90;;;;;;2072333;28;20014;-63
2021/07/04 01:52:23;;;;;;;7.82;3.25;;;16.40;99.90;;;;;;2076001;28;20032;-63
2021/07/04 01:53:24;;;;;;;7.30;3.05;;;16.50;99.90;;;;;;2074787;28;20053;-63
2021/07/04 01:54:25;;;;;;;11.30;3.63;;;16.50;99.90;;;;;;2075410;28;20022;-63
2021/07/04 01:55:26;;;;;;;13.15;4.03;;;16.50;99.90;;;;;;2079726;28;20517;-63
2021/07/04 01:56:27;;;;;;;14.88;3.78;;;16.50;99.90;;;;;;2072886;28;20034;-66
2021/07/04 01:57:27;;;;;;;11.80;3.78;;;16.50;99.90;;;;;;2075609;28;20060;-65
2021/07/04 01:58:28;;;;;;;13.40;4.40;;;16.50;99.90;;;;;;2080273;28;20486;-63
2021/07/04 01:59:29;;;;;;;9.63;3.53;;;16.50;99.90;;;;;;2079861;28;20136;-63
2021/07/04 02:00:32;;;;;;;15.80;3.88;;;16.50;99.90;;;;;;2077548;28;20116;-63
2021/07/04 02:01:32;;;;;;;11.32;3.97;;;16.50;99.90;;;;;;2079713;28;20128;-63
2021/07/04 02:02:33;;;;;;;8.13;3.35;;;16.50;99.90;;;;;;2079682;28;20025;-63
2021/07/04 02:03:34;;;;;;;10.93;3.90;;;16.50;99.90;;;;;;2081039;28;20075;-63
2021/07/04 02:04:41;;;;;;;6.72;3.40;;;16.50;99.90;;;;;;2080597;28;20100;-63
2021/07/04 02:05:41;;;;;;;13.45;3.47;;;16.40;99.90;;;;;;2078714;28;20052;-63
2021/07/04 02:06:42;;;;;;;14.48;3.65;;;16.40;99.90;;;;;;2072844;28;20026;-63
2021/07/04 02:07:43;;;;;;;15.23;3.88;;;16.40;99.90;;;;;;2077089;28;20018;-63
2021/07/04 02:08:44;;;;;;;18.45;3.45;;;16.40;99.90;;;;;;2079672;28;20389;-65
2021/07/04 02:09:50;;;;;;;15.75;3.78;;;16.40;99.90;;;;;;2073949;28;20022;-63
2021/07/04 02:10:50;;;;;;;14.60;4.05;;;16.40;99.90;;;;;;2073858;28;20053;-63
2021/07/04 02:11:51;;;;;;;14.05;4.00;;;16.40;99.90;;;;;;2081132;28;20172;-63
2021/07/04 02:12:52;;;;;;;10.90;3.78;;;16.30;99.90;;;;;;2080460;28;20022;-64
2021/07/04 02:13:53;;;;;;;13.93;4.32;;;16.40;99.90;;;;;;2081093;28;20552;-63
2021/07/04 02:14:54;;;;;;;15.23;3.90;;;16.40;99.90;;;;;;2086883;28;20044;-64
2021/07/04 02:15:55;;;;;;;13.80;3.47;;;16.40;99.90;;;;;;2080669;28;20413;-64
2021/07/04 02:16:56;;;;;;;8.45;3.47;;;16.40;99.90;;;;;;2089935;28;20604;-64
2021/07/04 02:18:03;;;;;;;16.90;3.92;;;16.30;99.90;;;;;;2083880;28;20034;-63
2021/07/04 02:19:03;;;;;;;10.70;4.18;;;16.30;99.90;;;;;;2080552;28;20485;-64
2021/07/04 02:20:17;;;;;;;15.43;3.92;;;16.30;99.90;;;;;;2077284;28;20075;-63
2021/07/04 02:21:19;;;;;;;13.68;4.22;;;16.30;99.90;;;;;;2080092;28;20013;-63
2021/07/04 02:22:20;;;;;;;11.73;3.90;;;16.30;99.90;;;;;;2079600;28;20057;-64
2021/07/04 02:23:32;;;;;;;16.00;3.90;;;16.30;99.90;;;;;;2082386;28;20414;-63
2021/07/04 02:24:33;;;;;;;9.80;3.60;;;16.30;99.90;;;;;;2076823;28;20029;-63
2021/07/04 02:25:35;;;;;;;11.60;3.95;;;16.30;99.90;;;;;;2081406;28;20024;-62
2021/07/04 02:26:36;;;;;;;13.48;4.00;;;16.30;99.90;;;;;;2086972;28;20021;-62
2021/07/04 02:27:37;;;;;;;16.80;4.35;;;16.30;99.90;;;;;;2082123;28;20031;-62
2021/07/04 02:28:37;;;;;;;11.52;4.15;;;16.20;99.90;;;;;;2082393;28;20485;-63
2021/07/04 02:29:39;;;;;;;10.70;3.40;;;16.30;99.90;;;;;;2082834;28;20029;-63
2021/07/04 02:30:40;;;;;;;13.82;3.95;;;16.30;99.90;;;;;;2076470;28;20026;-62
2021/07/04 02:31:41;;;;;;;12.65;4.35;;;16.30;99.90;;;;;;2075463;28;20028;-63
2021/07/04 02:32:42;;;;;;;12.25;4.05;;;16.20;99.90;;;;;;2081541;28;20045;-64
2021/07/04 02:33:42;;;;;;;13.88;3.88;;;16.20;99.90;;;;;;2081457;28;20036;-62
2021/07/04 02:34:43;;;;;;;18.33;4.38;;;16.20;99.90;;;;;;2082069;28;20030;-62
2021/07/04 02:35:53;;;;;;;12.13;3.88;;;16.20;99.90;;;;;;2080226;28;20029;-63
2021/07/04 02:36:54;;;;;;;11.90;3.50;;;16.20;99.90;;;;;;2077310;28;20025;-62
2021/07/04 02:37:55;;;;;;;11.25;4.10;;;16.20;99.90;;;;;;2080266;28;20064;-62
2021/07/04 02:38:55;;;;;;;13.00;4.32;;;16.20;99.90;;;;;;2074985;28;20021;-62
2021/07/04 02:39:56;;;;;;;13.05;3.67;;;16.20;99.90;;;;;;2072418;28;20022;-62
2021/07/04 02:40:57;;;;;;;13.18;3.75;;;16.20;99.90;;;;;;2079271;28;20504;-62
2021/07/04 02:41:57;;;;;;;15.95;4.60;;;16.20;99.90;;;;;;2080283;28;20052;-62
2021/07/04 02:42:59;;;;;;;16.33;4.20;;;16.20;99.90;;;;;;2080493;28;20021;-63
2021/07/04 02:44:00;;;;;;;12.20;3.67;;;16.20;99.90;;;;;;2074015;28;20033;-62
2021/07/04 02:45:01;;;;;;;12.27;3.88;;;16.20;99.90;;;;;;2079812;28;20108;-62
2021/07/04 02:46:01;;;;;;;15.35;3.63;;;16.20;99.90;;;;;;2072296;28;20014;-63
2021/07/04 02:47:02;;;;;;;11.75;4.05;;;16.20;99.90;;;;;;2079762;28;20525;-62
2021/07/04 02:48:04;;;;;;;11.43;3.95;;;16.20;99.90;;;;;;2080548;28;20501;-62
2021/07/04 02:49:06;;;;;;;10.63;3.85;;;16.20;99.90;;;;;;2080399;28;20030;-63
2021/07/04 02:50:08;;;;;;;15.63;4.05;;;16.20;99.90;;;;;;2077551;28;20509;-63
2021/07/04 02:51:08;;;;;;;15.70;4.32;;;16.20;99.90;;;;;;2071450;28;20029;-62
2021/07/04 02:52:09;;;;;;;9.25;3.63;;;16.20;99.90;;;;;;2079441;28;20505;-62
2021/07/04 02:53:10;;;;;;;12.50;4.10;;;16.20;99.90;;;;;;2080803;28;20057;-62
2021/07/04 02:54:11;;;;;;;13.20;3.90;;;16.20;99.90;;;;;;2077091;28;20049;-62
2021/07/04 02:55:12;;;;;;;12.27;4.88;;;16.20;99.90;;;;;;2072530;28;20374;-63
2021/07/04 02:56:12;;;;;;;13.38;4.55;;;16.20;99.90;;;;;;2078206;28;20108;-63
2021/07/04 02:57:13;;;;;;;13.30;4.68;;;16.20;99.90;;;;;;2076801;28;20022;-63
2021/07/04 02:58:14;;;;;;;17.08;4.60;;;16.20;99.90;;;;;;2079734;28;20029;-63
2021/07/04 02:59:15;;;;;;;13.52;4.88;;;16.20;99.90;;;;;;2079238;28;20025;-63
2021/07/04 03:00:18;;;;;;;15.32;4.68;;;16.20;99.90;;;;;;2080657;28;20103;-63
2021/07/04 03:01:19;;;;;;;13.45;3.90;;;16.20;99.90;;;;;;2080176;28;20018;-63
2021/07/04 03:02:20;;;;;;;11.07;4.22;;;16.20;99.90;;;;;;2077852;28;20100;-63
2021/07/04 03:03:21;;;;;;;9.43;4.18;;;16.20;99.90;;;;;;2072754;28;20033;-63
2021/07/04 03:04:21;;;;;;;13.23;4.03;;;16.20;99.90;;;;;;2075472;28;20021;-63
2021/07/04 03:05:22;;;;;;;9.88;4.40;;;16.20;99.90;;;;;;2073180;28;20522;-63
2021/07/04 03:06:23;;;;;;;13.23;4.25;;;16.20;99.90;;;;;;2076017;28;20101;-63
2021/07/04 03:07:24;;;;;;;11.27;4.20;;;16.20;99.90;;;;;;2079777;28;20028;-63
2021/07/04 03:08:24;;;;;;;11.82;4.50;;;16.20;99.90;;;;;;2079655;28;20595;-63
2021/07/04 03:09:25;;;;;;;16.52;4.45;;;16.20;99.90;;;;;;2079774;28;20079;-63
2021/07/04 03:10:26;;;;;;;10.85;4.15;;;16.20;99.90;;;;;;2088092;28;20183;-63
2021/07/04 03:11:26;;;;;;;14.30;4.22;;;16.20;99.90;;;;;;2079757;28;20051;-63
2021/07/04 03:12:28;;;;;;;12.20;4.88;;;16.20;99.90;;;;;;2077180;28;20049;-63
2021/07/04 03:13:28;;;;;;;9.57;4.20;;;16.20;99.90;;;;;;2079513;28;20025;-63
2021/07/04 03:14:29;;;;;;;14.75;4.38;;;16.20;99.90;;;;;;2082314;28;20743;-63
2021/07/04 03:15:30;;;;;;;15.80;4.60;;;16.20;99.90;;;;;;2071882;28;20477;-63
2021/07/04 03:16:30;;;;;;;12.32;4.47;;;16.20;99.90;;;;;;2076094;28;20080;-63
2021/07/04 03:17:31;;;;;;;11.25;4.28;;;16.20;99.90;;;;;;2072330;28;20017;-63
2021/07/04 03:18:33;;;;;;;10.63;4.40;;;16.20;99.90;;;;;;2075467;28;20022;-63
2021/07/04 03:19:33;;;;;;;17.98;5.70;;;16.20;99.90;;;;;;2080047;28;20432;-63
2021/07/04 03:20:34;;;;;;;13.07;4.75;;;16.20;99.90;;;;;;2080002;28;20028;-63
2021/07/04 03:21:35;;;;;;;15.48;4.40;;;16.20;99.90;;;;;;2081495;28;20022;-63
2021/07/04 03:22:36;;;;;;;17.55;5.88;;;16.20;99.90;;;;;;2078981;28;20029;-63
2021/07/04 03:23:37;;;;;;;14.48;4.60;;;16.20;99.90;;;;;;2077833;28;20017;-63
2021/07/04 03:24:40;;;;;;;11.93;4.30;;;16.20;99.90;;;;;;2074995;28;20022;-63
2021/07/04 03:25:40;;;;;;;11.75;4.80;;;16.20;99.90;;;;;;2087037;28;20754;-63
2021/07/04 03:26:41;;;;;;;15.90;4.85;;;16.20;99.90;;;;;;2088564;28;20025;-63
2021/07/04 03:27:43;;;;;;;15.27;4.65;;;16.20;99.90;;;;;;2088745;28;20032;-63
2021/07/04 03:28:44;;;;;;;15.38;4.60;;;16.20;99.90;;;;;;2080177;28;20136;-63
2021/07/04 03:29:44;;;;;;;14.80;4.45;;;16.20;99.90;;;;;;2079689;28;20025;-63
2021/07/04 03:30:45;;;;;;;13.57;4.82;;;16.20;99.90;;;;;;2082481;28;20548;-63
2021/07/04 03:31:46;;;;;;;10.98;4.30;;;16.20;99.90;;;;;;2075454;28;20053;-63
2021/07/04 03:32:48;;;;;;;16.48;4.82;;;16.20;99.90;;;;;;2088105;28;20067;-63
2021/07/04 03:33:49;;;;;;;11.75;4.20;;;16.20;99.90;;;;;;2079596;28;20425;-62
2021/07/04 03:34:50;;;;;;;11.43;4.28;;;16.20;99.90;;;;;;2070926;28;20044;-62
2021/07/04 03:35:50;;;;;;;13.10;4.60;;;16.20;99.90;;;;;;2081325;28;20036;-62
2021/07/04 03:36:51;;;;;;;17.17;5.03;;;16.20;99.90;;;;;;2081454;28;20028;-63
2021/07/04 03:37:52;;;;;;;14.80;4.45;;;16.20;99.90;;;;;;2088890;28;20029;-62
2021/07/04 03:38:53;;;;;;;12.68;4.18;;;16.20;99.90;;;;;;2077917;28;20083;-62
2021/07/04 03:39:53;;;;;;;21.48;5.32;;;16.20;99.90;;;;;;2079769;28;20021;-63
2021/07/04 03:40:54;;;;;;;12.45;4.18;;;16.20;99.90;;;;;;2082905;28;20053;-62
2021/07/04 03:41:55;;;;;;;10.88;4.10;;;16.20;99.90;;;;;;2079937;28;20032;-62
2021/07/04 03:42:58;;;;;;;11.07;4.15;;;16.20;99.90;;;;;;2080675;28;20440;-62
2021/07/04 03:44:01;;;;;;;14.20;4.15;;;16.20;99.90;;;;;;2079814;28;20045;-62
2021/07/04 03:45:03;;;;;;;11.23;4.38;;;16.20;99.90;;;;;;2077766;28;20029;-62
2021/07/04 03:46:04;;;;;;;12.70;4.15;;;16.20;99.90;;;;;;2078962;28;20027;-62
2021/07/04 03:47:05;;;;;;;14.32;4.20;;;16.20;99.90;;;;;;2079812;28;20018;-62
2021/07/04 03:48:06;;;;;;;11.95;4.05;;;16.20;99.90;;;;;;2080401;28;20022;-62
2021/07/04 03:49:07;;;;;;;12.23;4.00;;;16.20;99.90;;;;;;2080904;28;20045;-63
2021/07/04 03:50:08;;;;;;;11.25;4.10;;;16.20;99.90;;;;;;2081660;28;20032;-62
2021/07/04 03:51:09;;;;;;;14.02;4.32;;;16.20;99.90;;;;;;2081497;28;20028;-63
2021/07/04 03:52:10;;;;;;;11.23;3.65;;;16.20;99.90;;;;;;2081747;28;20033;-63
2021/07/04 03:53:11;;;;;;;12.25;3.90;;;16.20;99.90;;;;;;2081493;28;20025;-62
2021/07/04 03:54:11;;;;;;;7.20;3.50;;;16.20;99.90;;;;;;2086179;28;20021;-62
2021/07/04 03:55:14;;;;;;;12.40;3.72;;;16.20;99.90;;;;;;2081438;28;20380;-63
2021/07/04 03:56:15;;;;;;;17.08;4.60;;;16.20;99.90;;;;;;2072612;28;20076;-62
2021/07/04 03:57:24;;;;;;;12.48;4.10;;;16.20;99.90;;;;;;2080957;28;20013;-62
2021/07/04 03:58:25;;;;;;;10.10;3.70;;;16.20;99.90;;;;;;2082049;28;20049;-62
2021/07/04 03:59:26;;;;;;;12.23;4.88;;;16.20;99.90;;;;;;2081044;28;20018;-62
2021/07/04 04:00:27;;;;;;;11.55;4.80;;;16.10;99.90;;;;;;2081801;28;20494;-63
2021/07/04 04:01:27;;;;;;;10.88;3.75;;;16.20;99.90;;;;;;2089737;28;20534;-62
2021/07/04 04:02:29;;;;;;;16.38;4.47;;;16.20;99.90;;;;;;2086723;28;20029;-62
2021/07/04 04:03:30;;;;;;;8.02;3.67;;;16.10;99.90;;;;;;2081301;28;20508;-62
2021/07/04 04:04:31;;;;;;;15.27;4.13;;;16.20;99.90;;;;;;2078417;28;20026;-62
2021/07/04 04:05:31;;;;;;;18.70;4.65;;;16.20;99.90;;;;;;2081529;28;20108;-63
2021/07/04 04:06:32;;;;;;;14.85;3.95;;;16.20;99.90;;;;;;2080898;28;20044;-62
2021/07/04 04:07:34;;;;;;;9.68;4.00;;;16.20;99.90;;;;;;2080540;28;20120;-63
2021/07/04 04:08:34;;;;;;;8.98;3.72;;;16.20;99.90;;;;;;2073083;28;20022;-63
2021/07/04 04:09:35;;;;;;;9.95;3.83;;;16.20;99.90;;;;;;2081001;28;20022;-63
2021/07/04 04:10:36;;;;;;;7.47;4.10;;;16.20;99.90;;;;;;2081738;28;20064;-63
2021/07/04 04:11:36;;;;;;;14.18;3.90;;;16.20;99.90;;;;;;2071893;28;20474;-63
2021/07/04 04:12:38;;;;;;;15.23;4.07;;;16.20;99.90;;;;;;2075331;28;20033;-63
2021/07/04 04:13:39;;;;;;;11.88;4.32;;;16.20;99.90;;;;;;2081751;28;20029;-62
2021/07/04 04:14:40;;;;;;;13.55;4.47;;;16.30;99.90;;;;;;2081486;28;20079;-62
2021/07/04 04:15:41;;;;;;;14.30;4.03;;;16.30;99.90;;;;;;2081678;28;20727;-63
2021/07/04 04:16:41;;;;;;;16.05;4.40;;;16.30;99.90;;;;;;2078252;28;20097;-63
2021/07/04 04:17:42;;;;;;;12.70;4.25;;;16.30;99.90;;;;;;2073587;28;20077;-62
2021/07/04 04:18:44;;;;;;;13.63;4.00;;;16.30;99.90;;;;;;2078635;28;20117;-62
2021/07/04 04:19:44;;;;;;;16.05;4.32;;;16.30;99.90;;;;;;2078544;28;20060;-62
2021/07/04 04:20:45;;;;;;;13.68;4.47;;;16.30;99.90;;;;;;2083961;28;20413;-63
2021/07/04 04:21:46;;;;;;;16.02;5.05;;;16.30;99.90;;;;;;2083733;28;20064;-63
2021/07/04 04:22:46;;;;;;;12.07;4.00;;;16.30;99.90;;;;;;2090108;28;20013;-62
2021/07/04 04:23:47;;;;;;;14.63;4.65;;;16.30;99.90;;;;;;2083749;28;20028;-62
2021/07/04 04:24:48;;;;;;;12.90;3.80;;;16.30;99.90;;;;;;2074907;28;20053;-62
2021/07/04 04:25:50;;;;;;;12.75;4.50;;;16.30;99.90;;;;;;2088454;28;20025;-63
2021/07/04 04:26:51;;;;;;;12.07;4.20;;;16.30;99.90;;;;;;2081324;28;20021;-63
2021/07/04 04:27:51;;;;;;;13.70;4.20;;;16.40;99.90;;;;;;2081749;28;20022;-62
2021/07/04 04:28:52;;;;;;;12.55;4.18;;;16.40;99.90;;;;;;2080635;28;20056;-62
2021/07/04 04:29:53;;;;;;;10.60;4.40;;;16.40;99.90;;;;;;2080827;28;20022;-63
2021/07/04 04:30:54;;;;;;;10.88;4.07;;;16.40;99.90;;;;;;2081450;28;20068;-63
2021/07/04 04:31:55;;;;;;;17.90;4.53;;;16.30;99.90;;;;;;2078116;28;20045;-63
2021/07/04 04:32:55;;;;;;;13.15;4.53;;;16.30;99.90;;;;;;2080507;28;20536;-63
2021/07/04 04:33:56;;;;;;;14.73;4.28;;;16.30;99.90;;;;;;2080297;28;20105;-62
2021/07/04 04:34:57;;;;;;;14.43;4.50;;;16.40;99.90;;;;;;2080847;28;20025;-63
2021/07/04 04:35:57;;;;;;;15.50;4.63;;;16.40;99.90;;;;;;2088815;28;20033;-62
2021/07/04 04:36:59;;;;;;;10.23;3.83;;;16.40;99.90;;;;;;2087429;28;20025;-63
2021/07/04 04:38:00;;;;;;;17.33;4.55;;;16.40;99.90;;;;;;2081825;28;20412;-62
2021/07/04 04:39:01;;;;;;;18.10;4.57;;;16.40;99.90;;;;;;2077843;28;20036;-62
2021/07/04 04:40:03;;;;;;;14.43;3.90;;;16.40;99.90;;;;;;2073026;28;20057;-62
2021/07/04 04:41:04;;;;;;;12.05;4.25;;;16.40;99.90;;;;;;2079386;28;20017;-63
2021/07/04 04:42:05;;;;;;;15.52;4.72;;;16.40;99.90;;;;;;2075698;28;20548;-62
2021/07/04 04:43:06;;;;;;;13.32;3.90;;;16.40;99.90;;;;;;2083576;28;20013;-63
2021/07/04 04:44:07;;;;;;;10.50;3.95;;;16.40;99.90;;;;;;2082844;28;20063;-62
2021/07/04 04:45:08;;;;;;;15.52;4.55;;;16.40;99.90;;;;;;2081595;28;20010;-63
2021/07/04 04:46:09;;;;;;;15.35;4.43;;;16.40;99.90;;;;;;2081402;28;20025;-63
2021/07/04 04:47:10;;;;;;;12.48;4.15;;;16.50;99.90;;;;;;2081377;28;20026;-62
2021/07/04 04:48:10;;;;;;;16.45;4.15;;;16.50;99.90;;;;;;2081601;28;20021;-62
2021/07/04 04:49:11;;;;;;;15.75;4.63;;;16.50;99.90;;;;;;2075900;28;20025;-62
2021/07/04 04:50:12;;;;;;;16.52;4.45;;;16.50;99.90;;;;;;2077621;28;20017;-63
2021/07/04 04:51:13;;;;;;;10.68;4.20;;;16.50;99.90;;;;;;2076362;28;20021;-62
2021/07/04 04:52:14;;;;;;;14.80;4.35;;;16.50;99.90;;;;;;2080501;28;20021;-62
2021/07/04 04:53:14;;;;;;;18.70;4.85;;;16.50;99.90;;;;;;2081692;28;20018;-63
2021/07/04 04:54:15;;;;;;;12.90;4.75;;;16.50;99.90;;;;;;2081202;28;20026;-62
2021/07/04 04:55:16;;;;;;;15.05;4.43;;;16.50;99.90;;;;;;2081551;28;20351;-63
2021/07/04 04:56:17;;;;;;;9.48;3.92;;;16.50;99.90;;;;;;2080640;28;20120;-62
2021/07/04 04:57:18;;;;;;;11.93;3.75;;;16.50;99.90;;;;;;2072261;28;20057;-63
2021/07/04 04:58:18;;;;;;;10.25;4.00;;;16.50;99.90;;;;;;2074190;28;20041;-62
2021/07/04 04:59:19;;;;;;;9.77;3.92;;;16.60;99.90;;;;;;2077291;28;20013;-62
2021/07/04 05:00:20;;;;;;;13.95;4.10;;;16.60;99.90;;;;;;2080762;28;20036;-62
2021/07/04 05:01:21;;;;;;;12.10;3.80;;;16.60;99.90;;;;;;2079487;28;20052;-63
2021/07/04 05:02:21;;;;;;;14.15;3.78;;;16.60;99.90;;;;;;2081968;28;20559;-62
2021/07/04 05:03:22;;;;;;;13.50;4.28;;;16.60;99.90;;;;;;2088985;28;20021;-62
2021/07/04 05:04:23;;;;;;;9.82;4.15;;;16.60;99.90;;;;;;2085151;28;20024;-62
2021/07/04 05:05:23;;;;;;;7.75;3.92;;;16.60;99.90;;;;;;2081381;28;20022;-62
2021/07/04 05:06:24;;;;;;;10.80;3.55;;;16.60;99.90;;;;;;2075353;28;20014;-63
2021/07/04 05:07:25;;;;;;;10.57;4.03;;;16.60;99.90;;;;;;2073498;28;20551;-62
2021/07/04 05:08:26;;;;;;;10.77;3.75;;;16.60;99.90;;;;;;2080574;28;20013;-62
2021/07/04 05:09:28;;;;;;;12.38;3.70;;;16.60;99.90;;;;;;2084397;28;20104;-62
2021/07/04 05:10:29;;;;;;;9.00;3.80;;;16.60;99.90;;;;;;2088945;28;20516;-63
2021/07/04 05:11:30;;;;;;;18.42;4.20;;;16.60;99.90;;;;;;2078949;28;20953;-62
2021/07/04 05:12:30;;;;;;;8.52;3.47;;;16.60;99.90;;;;;;2076805;28;20029;-62
2021/07/04 05:13:31;;;;;;;12.43;4.18;;;16.60;99.90;;;;;;2081221;28;20063;-62
2021/07/04 05:14:32;;;;;;;13.27;4.05;;;16.70;99.90;;;;;;2080546;28;20078;-62
2021/07/04 05:15:32;;;;;;;14.43;4.80;;;16.70;99.90;;;;;;2072428;28;20030;-62